sensor_id;sensor_type;location;lat;lon;timestamp;temperature;humidity
23237;DHT22;11787;52.018;8.570;2023-07-13T00:01:53;18.90;99.90
23237;DHT22;11787;52.018;8.570;2023-07-13T00:04:20;18.90;99.90
23237;DHT22;11787;52.018;8.570;2023-07-13T00:06:46;18.90;99.90
23237;DHT22;11787;52.018;8.570;2023-07-13T00:09:12;18.80;99.90
23237;DHT22;11787;52.018;8.570;2023-07-13T00:11:39;18.70;99.90
23237;DHT22;11787;52.018;8.570;2023-07-13T00:14:04;18.80;99.90
23237;DHT22;11787;52.018;8.570;2023-07-13T00:16:30;18.70;99.90
23237;DHT22;11787;52.018;8.570;2023-07-13T00:18:56;18.60;99.90
23237;DHT22;11787;52.018;8.570;2023-07-13T00:21:21;18.60;99.90
23237;DHT22;11787;52.018;8.570;2023-07-13T00:23:46;18.50;99.90
23237;DHT22;11787;52.018;8.570;2023-07-13T00:26:12;18.50;99.90
23237;DHT22;11787;52.018;8.570;2023-07-13T00:28:38;18.50;99.90
23237;DHT22;11787;52.018;8.570;2023-07-13T00:31:04;18.50;99.90
23237;DHT22;11787;52.018;8.570;2023-07-13T00:33:29;18.60;99.90
23237;DHT22;11787;52.018;8.570;2023-07-13T00:35:55;18.60;99.90
23237;DHT22;11787;52.018;8.570;2023-07-13T00:38:21;18.50;99.90
23237;DHT22;11787;52.018;8.570;2023-07-13T00:40:46;18.50;99.90
23237;DHT22;11787;52.018;8.570;2023-07-13T00:43:19;18.50;99.90
23237;DHT22;11787;52.018;8.570;2023-07-13T00:48:15;18.40;99.90
23237;DHT22;11787;52.018;8.570;2023-07-13T00:50:41;18.50;99.90
23237;DHT22;11787;52.018;8.570;2023-07-13T00:53:08;18.40;99.90
23237;DHT22;11787;52.018;8.570;2023-07-13T00:55:34;18.50;99.90
23237;DHT22;11787;52.018;8.570;2023-07-13T00:58:01;18.40;99.90
23237;DHT22;11787;52.018;8.570;2023-07-13T01:00:27;18.40;99.90
23237;DHT22;11787;52.018;8.570;2023-07-13T01:02:54;18.40;99.90
23237;DHT22;11787;52.018;8.570;2023-07-13T01:05:21;18.40;99.90
23237;DHT22;11787;52.018;8.570;2023-07-13T01:07:48;18.40;99.90
23237;DHT22;11787;52.018;8.570;2023-07-13T01:10:13;18.40;99.90
23237;DHT22;11787;52.018;8.570;2023-07-13T01:12:39;18.40;99.90
23237;DHT22;11787;52.018;8.570;2023-07-13T01:15:05;18.30;99.90
23237;DHT22;11787;52.018;8.570;2023-07-13T01:17:31;18.30;99.90
23237;DHT22;11787;52.018;8.570;2023-07-13T01:19:58;18.20;99.90
23237;DHT22;11787;52.018;8.570;2023-07-13T01:22:23;18.20;99.90
23237;DHT22;11787;52.018;8.570;2023-07-13T01:24:51;18.20;99.90
23237;DHT22;11787;52.018;8.570;2023-07-13T01:27:22;18.20;99.90
23237;DHT22;11787;52.018;8.570;2023-07-13T01:29:50;18.20;99.90
23237;DHT22;11787;52.018;8.570;2023-07-13T01:32:22;18.20;99.90
23237;DHT22;11787;52.018;8.570;2023-07-13T01:34:49;18.20;99.90
23237;DHT22;11787;52.018;8.570;2023-07-13T01:37:16;18.20;99.90
23237;DHT22;11787;52.018;8.570;2023-07-13T01:39:42;18.10;99.90
23237;DHT22;11787;52.018;8.570;2023-07-13T01:42:07;18.10;99.90
23237;DHT22;11787;52.018;8.570;2023-07-13T01:44:33;18.10;99.90
23237;DHT22;11787;52.018;8.570;2023-07-13T01:46:59;18.10;99.90
23237;DHT22;11787;52.018;8.570;2023-07-13T01:49:24;18.20;99.90
23237;DHT22;11787;52.018;8.570;2023-07-13T01:51:50;18.20;99.90
23237;DHT22;11787;52.018;8.570;2023-07-13T01:54:15;18.20;99.90
23237;DHT22;11787;52.018;8.570;2023-07-13T01:56:41;18.20;99.90
23237;DHT22;11787;52.018;8.570;2023-07-13T01:59:07;18.20;99.90
23237;DHT22;11787;52.018;8.570;2023-07-13T02:01:32;18.20;99.90
23237;DHT22;11787;52.018;8.570;2023-07-13T02:03:58;18.20;99.90
23237;DHT22;11787;52.018;8.570;2023-07-13T02:06:23;18.20;99.90
23237;DHT22;11787;52.018;8.570;2023-07-13T02:08:49;18.20;99.90
23237;DHT22;11787;52.018;8.570;2023-07-13T02:11:14;18.20;99.90
23237;DHT22;11787;52.018;8.570;2023-07-13T02:13:40;18.20;99.90
23237;DHT22;11787;52.018;8.570;2023-07-13T02:16:05;18.20;99.90
23237;DHT22;11787;52.018;8.570;2023-07-13T02:18:31;18.10;99.90
23237;DHT22;11787;52.018;8.570;2023-07-13T02:20:57;18.00;99.90
23237;DHT22;11787;52.018;8.570;2023-07-13T02:23:22;18.00;99.90
23237;DHT22;11787;52.018;8.570;2023-07-13T02:25:48;17.90;99.90
23237;DHT22;11787;52.018;8.570;2023-07-13T02:28:14;17.90;99.90
23237;DHT22;11787;52.018;8.570;2023-07-13T02:30:39;17.80;99.90
23237;DHT22;11787;52.018;8.570;2023-07-13T02:33:05;17.80;99.90
23237;DHT22;11787;52.018;8.570;2023-07-13T02:35:30;17.80;99.90
23237;DHT22;11787;52.018;8.570;2023-07-13T02:37:56;17.70;99.90
23237;DHT22;11787;52.018;8.570;2023-07-13T02:40:21;17.60;99.90
23237;DHT22;11787;52.018;8.570;2023-07-13T02:42:47;17.50;99.90
23237;DHT22;11787;52.018;8.570;2023-07-13T02:45:12;17.50;99.90
23237;DHT22;11787;52.018;8.570;2023-07-13T02:47:39;17.40;99.90
23237;DHT22;11787;52.018;8.570;2023-07-13T02:50:05;17.50;99.90
23237;DHT22;11787;52.018;8.570;2023-07-13T02:52:30;17.40;99.90
23237;DHT22;11787;52.018;8.570;2023-07-13T02:54:56;17.40;99.90
23237;DHT22;11787;52.018;8.570;2023-07-13T02:57:21;17.30;99.90
23237;DHT22;11787;52.018;8.570;2023-07-13T02:59:47;17.30;99.90
23237;DHT22;11787;52.018;8.570;2023-07-13T03:02:12;17.30;99.90
23237;DHT22;11787;52.018;8.570;2023-07-13T03:04:38;17.30;99.90
23237;DHT22;11787;52.018;8.570;2023-07-13T03:07:06;17.30;99.90
23237;DHT22;11787;52.018;8.570;2023-07-13T03:09:32;17.20;99.90
23237;DHT22;11787;52.018;8.570;2023-07-13T03:11:58;17.20;99.90
23237;DHT22;11787;52.018;8.570;2023-07-13T03:14:24;17.20;99.90
23237;DHT22;11787;52.018;8.570;2023-07-13T03:16:49;17.20;99.90
23237;DHT22;11787;52.018;8.570;2023-07-13T03:19:15;17.20;99.90
23237;DHT22;11787;52.018;8.570;2023-07-13T03:21:40;17.10;99.90
23237;DHT22;11787;52.018;8.570;2023-07-13T03:24:06;17.10;99.90
23237;DHT22;11787;52.018;8.570;2023-07-13T03:26:31;17.10;99.90
23237;DHT22;11787;52.018;8.570;2023-07-13T03:28:57;17.20;99.90
23237;DHT22;11787;52.018;8.570;2023-07-13T03:31:25;17.10;99.90
23237;DHT22;11787;52.018;8.570;2023-07-13T03:33:51;17.10;99.90
23237;DHT22;11787;52.018;8.570;2023-07-13T03:36:20;17.10;99.90
23237;DHT22;11787;52.018;8.570;2023-07-13T03:38:50;17.10;99.90
23237;DHT22;11787;52.018;8.570;2023-07-13T03:41:16;17.00;99.90
23237;DHT22;11787;52.018;8.570;2023-07-13T03:43:41;17.10;99.90
23237;DHT22;11787;52.018;8.570;2023-07-13T03:46:08;17.10;99.90
23237;DHT22;11787;52.018;8.570;2023-07-13T03:48:33;17.00;99.90
23237;DHT22;11787;52.018;8.570;2023-07-13T03:50:59;17.00;99.90
23237;DHT22;11787;52.018;8.570;2023-07-13T03:53:24;16.90;99.90
23237;DHT22;11787;52.018;8.570;2023-07-13T03:55:50;16.90;99.90
23237;DHT22;11787;52.018;8.570;2023-07-13T04:00:53;16.80;99.90
23237;DHT22;11787;52.018;8.570;2023-07-13T04:03:19;16.80;99.90
23237;DHT22;11787;52.018;8.570;2023-07-13T04:05:45;16.70;99.90
23237;DHT22;11787;52.018;8.570;2023-07-13T04:08:11;16.70;99.90
23237;DHT22;11787;52.018;8.570;2023-07-13T04:10:36;16.80;99.90
23237;DHT22;11787;52.018;8.570;2023-07-13T04:13:02;16.70;99.90
23237;DHT22;11787;52.018;8.570;2023-07-13T04:15:29;16.70;99.90
23237;DHT22;11787;52.018;8.570;2023-07-13T04:17:54;16.70;99.90
23237;DHT22;11787;52.018;8.570;2023-07-13T04:20:20;16.80;99.90
23237;DHT22;11787;52.018;8.570;2023-07-13T04:22:45;16.80;99.90
23237;DHT22;11787;52.018;8.570;2023-07-13T04:25:11;16.80;99.90
23237;DHT22;11787;52.018;8.570;2023-07-13T04:27:36;16.70;99.90
23237;DHT22;11787;52.018;8.570;2023-07-13T04:30:02;16.60;99.90
23237;DHT22;11787;52.018;8.570;2023-07-13T04:32:27;16.70;99.90
23237;DHT22;11787;52.018;8.570;2023-07-13T04:34:53;16.70;99.90
23237;DHT22;11787;52.018;8.570;2023-07-13T04:37:21;16.70;99.90
23237;DHT22;11787;52.018;8.570;2023-07-13T04:39:46;16.70;99.90
23237;DHT22;11787;52.018;8.570;2023-07-13T04:42:12;16.70;99.90
23237;DHT22;11787;52.018;8.570;2023-07-13T04:44:37;16.70;99.90
23237;DHT22;11787;52.018;8.570;2023-07-13T04:47:03;16.70;99.90
23237;DHT22;11787;52.018;8.570;2023-07-13T04:49:28;16.70;99.90
23237;DHT22;11787;52.018;8.570;2023-07-13T04:51:54;16.60;99.90
23237;DHT22;11787;52.018;8.570;2023-07-13T04:54:20;16.70;99.90
23237;DHT22;11787;52.018;8.570;2023-07-13T04:56:46;16.70;99.90
23237;DHT22;11787;52.018;8.570;2023-07-13T04:59:11;16.70;99.90
23237;DHT22;11787;52.018;8.570;2023-07-13T05:01:37;16.80;99.90
23237;DHT22;11787;52.018;8.570;2023-07-13T05:04:02;16.80;99.90
23237;DHT22;11787;52.018;8.570;2023-07-13T05:06:28;16.80;99.90
23237;DHT22;11787;52.018;8.570;2023-07-13T05:08:53;16.80;99.90
23237;DHT22;11787;52.018;8.570;2023-07-13T05:11:19;16.80;99.90
23237;DHT22;11787;52.018;8.570;2023-07-13T05:13:44;16.80;99.90
23237;DHT22;11787;52.018;8.570;2023-07-13T05:16:10;16.90;99.90
23237;DHT22;11787;52.018;8.570;2023-07-13T05:18:36;16.90;99.90
23237;DHT22;11787;52.018;8.570;2023-07-13T05:21:03;17.20;99.90
23237;DHT22;11787;52.018;8.570;2023-07-13T05:23:29;17.30;99.90
23237;DHT22;11787;52.018;8.570;2023-07-13T05:25:55;17.40;99.90
23237;DHT22;11787;52.018;8.570;2023-07-13T05:28:21;17.50;99.90
23237;DHT22;11787;52.018;8.570;2023-07-13T05:30:47;17.70;99.90
23237;DHT22;11787;52.018;8.570;2023-07-13T05:33:13;17.80;99.90
23237;DHT22;11787;52.018;8.570;2023-07-13T05:35:38;17.90;99.90
23237;DHT22;11787;52.018;8.570;2023-07-13T05:38:04;18.10;99.90
23237;DHT22;11787;52.018;8.570;2023-07-13T05:40:29;18.20;99.90
23237;DHT22;11787;52.018;8.570;2023-07-13T05:42:54;18.40;99.90
23237;DHT22;11787;52.018;8.570;2023-07-13T05:45:20;18.40;99.90
23237;DHT22;11787;52.018;8.570;2023-07-13T05:47:45;18.40;99.90
23237;DHT22;11787;52.018;8.570;2023-07-13T05:50:11;18.60;99.90
23237;DHT22;11787;52.018;8.570;2023-07-13T05:52:36;18.80;99.90
23237;DHT22;11787;52.018;8.570;2023-07-13T05:55:02;18.70;99.90
23237;DHT22;11787;52.018;8.570;2023-07-13T05:57:28;18.70;99.90
23237;DHT22;11787;52.018;8.570;2023-07-13T05:59:53;18.80;99.90
23237;DHT22;11787;52.018;8.570;2023-07-13T06:02:19;18.90;99.90
23237;DHT22;11787;52.018;8.570;2023-07-13T06:04:44;18.90;99.90
23237;DHT22;11787;52.018;8.570;2023-07-13T06:07:10;19.20;99.90
23237;DHT22;11787;52.018;8.570;2023-07-13T06:09:35;19.30;99.90
23237;DHT22;11787;52.018;8.570;2023-07-13T06:12:01;19.30;99.90
23237;DHT22;11787;52.018;8.570;2023-07-13T06:14:26;19.50;99.90
23237;DHT22;11787;52.018;8.570;2023-07-13T06:16:52;19.40;99.90
23237;DHT22;11787;52.018;8.570;2023-07-13T06:19:17;19.60;99.90
23237;DHT22;11787;52.018;8.570;2023-07-13T06:21:43;19.70;99.90
23237;DHT22;11787;52.018;8.570;2023-07-13T06:24:08;19.40;99.90
23237;DHT22;11787;52.018;8.570;2023-07-13T06:26:34;19.70;99.90
23237;DHT22;11787;52.018;8.570;2023-07-13T06:28:59;19.70;99.90
23237;DHT22;11787;52.018;8.570;2023-07-13T06:31:25;19.70;99.90
23237;DHT22;11787;52.018;8.570;2023-07-13T06:33:50;19.80;99.90
23237;DHT22;11787;52.018;8.570;2023-07-13T06:36:16;20.00;99.90
23237;DHT22;11787;52.018;8.570;2023-07-13T06:38:41;20.00;99.90
23237;DHT22;11787;52.018;8.570;2023-07-13T06:41:07;19.80;99.90
23237;DHT22;11787;52.018;8.570;2023-07-13T06:43:33;19.50;99.90
23237;DHT22;11787;52.018;8.570;2023-07-13T06:45:58;19.50;99.90
23237;DHT22;11787;52.018;8.570;2023-07-13T06:48:24;19.30;99.90
23237;DHT22;11787;52.018;8.570;2023-07-13T06:50:50;19.20;99.90
23237;DHT22;11787;52.018;8.570;2023-07-13T06:53:17;19.20;99.90
23237;DHT22;11787;52.018;8.570;2023-07-13T06:55:43;19.20;99.90
23237;DHT22;11787;52.018;8.570;2023-07-13T06:58:08;19.40;99.90
23237;DHT22;11787;52.018;8.570;2023-07-13T07:00:34;19.30;99.90
23237;DHT22;11787;52.018;8.570;2023-07-13T07:02:59;19.10;99.90
23237;DHT22;11787;52.018;8.570;2023-07-13T07:05:25;19.10;99.90
23237;DHT22;11787;52.018;8.570;2023-07-13T07:07:50;19.30;99.90
23237;DHT22;11787;52.018;8.570;2023-07-13T07:10:17;19.50;99.90
23237;DHT22;11787;52.018;8.570;2023-07-13T07:12:42;19.30;99.90
23237;DHT22;11787;52.018;8.570;2023-07-13T07:15:08;19.20;99.90
23237;DHT22;11787;52.018;8.570;2023-07-13T07:17:33;19.10;99.90
23237;DHT22;11787;52.018;8.570;2023-07-13T07:19:59;19.10;99.90
23237;DHT22;11787;52.018;8.570;2023-07-13T07:22:24;19.00;99.90
23237;DHT22;11787;52.018;8.570;2023-07-13T07:24:52;19.00;99.90
23237;DHT22;11787;52.018;8.570;2023-07-13T07:27:18;19.10;99.90
23237;DHT22;11787;52.018;8.570;2023-07-13T07:29:43;19.10;99.90
23237;DHT22;11787;52.018;8.570;2023-07-13T07:32:09;19.30;99.90
23237;DHT22;11787;52.018;8.570;2023-07-13T07:34:34;19.40;99.90
23237;DHT22;11787;52.018;8.570;2023-07-13T07:37:00;19.50;99.90
23237;DHT22;11787;52.018;8.570;2023-07-13T07:39:26;19.70;99.90
23237;DHT22;11787;52.018;8.570;2023-07-13T07:41:51;19.80;99.90
23237;DHT22;11787;52.018;8.570;2023-07-13T07:44:17;19.80;99.90
23237;DHT22;11787;52.018;8.570;2023-07-13T07:46:42;20.00;99.90
23237;DHT22;11787;52.018;8.570;2023-07-13T07:49:08;20.30;99.90
23237;DHT22;11787;52.018;8.570;2023-07-13T07:51:34;20.40;99.90
23237;DHT22;11787;52.018;8.570;2023-07-13T07:53:59;20.20;99.90
23237;DHT22;11787;52.018;8.570;2023-07-13T07:56:25;20.10;99.90
23237;DHT22;11787;52.018;8.570;2023-07-13T07:58:50;20.00;99.90
23237;DHT22;11787;52.018;8.570;2023-07-13T08:01:16;20.10;99.90
23237;DHT22;11787;52.018;8.570;2023-07-13T08:03:41;20.20;99.90
23237;DHT22;11787;52.018;8.570;2023-07-13T08:06:07;20.10;99.90
23237;DHT22;11787;52.018;8.570;2023-07-13T08:08:32;20.20;99.90
23237;DHT22;11787;52.018;8.570;2023-07-13T08:10:58;20.10;99.90
23237;DHT22;11787;52.018;8.570;2023-07-13T08:13:27;20.40;99.90
23237;DHT22;11787;52.018;8.570;2023-07-13T08:15:52;20.60;99.90
23237;DHT22;11787;52.018;8.570;2023-07-13T08:18:18;20.80;99.90
23237;DHT22;11787;52.018;8.570;2023-07-13T08:20:43;20.80;99.90
23237;DHT22;11787;52.018;8.570;2023-07-13T08:23:09;20.90;99.90
23237;DHT22;11787;52.018;8.570;2023-07-13T08:25:35;20.90;99.90
23237;DHT22;11787;52.018;8.570;2023-07-13T08:28:01;21.00;99.90
23237;DHT22;11787;52.018;8.570;2023-07-13T08:30:27;20.90;99.90
23237;DHT22;11787;52.018;8.570;2023-07-13T08:32:52;20.80;99.90
23237;DHT22;11787;52.018;8.570;2023-07-13T08:35:18;20.60;99.90
23237;DHT22;11787;52.018;8.570;2023-07-13T08:37:43;20.40;99.90
23237;DHT22;11787;52.018;8.570;2023-07-13T08:40:09;20.40;99.90
23237;DHT22;11787;52.018;8.570;2023-07-13T08:45:21;20.80;99.90
23237;DHT22;11787;52.018;8.570;2023-07-13T08:47:54;20.80;99.90
23237;DHT22;11787;52.018;8.570;2023-07-13T08:50:21;20.80;99.90
23237;DHT22;11787;52.018;8.570;2023-07-13T08:52:47;21.00;99.90
23237;DHT22;11787;52.018;8.570;2023-07-13T08:57:38;20.70;99.90
23237;DHT22;11787;52.018;8.570;2023-07-13T09:00:08;20.70;99.90
23237;DHT22;11787;52.018;8.570;2023-07-13T09:02:56;20.70;99.90
23237;DHT22;11787;52.018;8.570;2023-07-13T09:10:18;21.10;99.90
23237;DHT22;11787;52.018;8.570;2023-07-13T09:17:48;21.40;99.90
23237;DHT22;11787;52.018;8.570;2023-07-13T09:20:21;21.60;99.90
23237;DHT22;11787;52.018;8.570;2023-07-13T09:22:48;21.60;99.90
23237;DHT22;11787;52.018;8.570;2023-07-13T09:25:30;21.90;99.90
23237;DHT22;11787;52.018;8.570;2023-07-13T09:27:57;22.20;99.90
23237;DHT22;11787;52.018;8.570;2023-07-13T09:30:30;22.10;99.90
23237;DHT22;11787;52.018;8.570;2023-07-13T09:32:58;22.10;99.90
23237;DHT22;11787;52.018;8.570;2023-07-13T09:35:27;22.10;99.90
23237;DHT22;11787;52.018;8.570;2023-07-13T09:37:57;22.30;99.90
23237;DHT22;11787;52.018;8.570;2023-07-13T09:43:03;22.60;99.90
23237;DHT22;11787;52.018;8.570;2023-07-13T09:45:32;22.70;99.90
23237;DHT22;11787;52.018;8.570;2023-07-13T09:48:05;22.60;99.90
23237;DHT22;11787;52.018;8.570;2023-07-13T09:50:31;22.60;99.90
23237;DHT22;11787;52.018;8.570;2023-07-13T09:52:56;22.80;99.90
23237;DHT22;11787;52.018;8.570;2023-07-13T09:57:50;22.90;99.90
23237;DHT22;11787;52.018;8.570;2023-07-13T10:00:24;22.80;99.90
23237;DHT22;11787;52.018;8.570;2023-07-13T10:03:03;23.10;99.90
23237;DHT22;11787;52.018;8.570;2023-07-13T10:05:37;22.90;99.90
23237;DHT22;11787;52.018;8.570;2023-07-13T10:08:02;22.80;99.90
23237;DHT22;11787;52.018;8.570;2023-07-13T10:10:28;22.70;99.90
23237;DHT22;11787;52.018;8.570;2023-07-13T10:12:53;22.40;99.90
23237;DHT22;11787;52.018;8.570;2023-07-13T10:15:20;22.60;99.90
23237;DHT22;11787;52.018;8.570;2023-07-13T10:17:46;22.40;99.90
23237;DHT22;11787;52.018;8.570;2023-07-13T10:20:12;22.20;99.90
23237;DHT22;11787;52.018;8.570;2023-07-13T10:22:57;21.90;99.90
23237;DHT22;11787;52.018;8.570;2023-07-13T10:25:25;22.10;99.90
23237;DHT22;11787;52.018;8.570;2023-07-13T10:27:54;22.30;99.90
23237;DHT22;11787;52.018;8.570;2023-07-13T10:30:25;22.60;99.90
23237;DHT22;11787;52.018;8.570;2023-07-13T10:32:53;23.50;99.90
23237;DHT22;11787;52.018;8.570;2023-07-13T10:35:19;23.80;99.90
23237;DHT22;11787;52.018;8.570;2023-07-13T10:37:50;23.80;99.90
23237;DHT22;11787;52.018;8.570;2023-07-13T10:40:22;24.10;99.90
23237;DHT22;11787;52.018;8.570;2023-07-13T10:42:50;24.40;99.90
23237;DHT22;11787;52.018;8.570;2023-07-13T10:45:21;24.10;99.90
23237;DHT22;11787;52.018;8.570;2023-07-13T10:47:48;23.90;99.90
23237;DHT22;11787;52.018;8.570;2023-07-13T10:50:19;24.00;99.90
23237;DHT22;11787;52.018;8.570;2023-07-13T10:52:52;23.70;99.90
23237;DHT22;11787;52.018;8.570;2023-07-13T10:55:33;23.70;99.90
23237;DHT22;11787;52.018;8.570;2023-07-13T10:57:59;23.90;99.90
23237;DHT22;11787;52.018;8.570;2023-07-13T11:00:25;24.00;99.90
23237;DHT22;11787;52.018;8.570;2023-07-13T11:03:00;24.20;99.90
23237;DHT22;11787;52.018;8.570;2023-07-13T11:05:30;24.10;99.90
23237;DHT22;11787;52.018;8.570;2023-07-13T11:08:02;23.70;99.90
23237;DHT22;11787;52.018;8.570;2023-07-13T11:10:48;23.60;99.90
23237;DHT22;11787;52.018;8.570;2023-07-13T11:15:58;23.60;99.90
23237;DHT22;11787;52.018;8.570;2023-07-13T11:18:24;23.80;99.90
23237;DHT22;11787;52.018;8.570;2023-07-13T11:20:50;24.10;99.90
23237;DHT22;11787;52.018;8.570;2023-07-13T11:23:18;24.20;99.90
23237;DHT22;11787;52.018;8.570;2023-07-13T11:25:44;24.60;99.90
23237;DHT22;11787;52.018;8.570;2023-07-13T11:30:36;24.00;99.90
23237;DHT22;11787;52.018;8.570;2023-07-13T11:35:35;24.20;99.90
23237;DHT22;11787;52.018;8.570;2023-07-13T11:38:01;24.20;99.90
23237;DHT22;11787;52.018;8.570;2023-07-13T11:40:27;24.50;99.90
23237;DHT22;11787;52.018;8.570;2023-07-13T11:42:59;24.20;99.90
23237;DHT22;11787;52.018;8.570;2023-07-13T11:45:24;24.10;99.90
23237;DHT22;11787;52.018;8.570;2023-07-13T11:47:50;24.10;99.90
23237;DHT22;11787;52.018;8.570;2023-07-13T11:50:19;23.90;99.90
23237;DHT22;11787;52.018;8.570;2023-07-13T11:52:45;24.20;99.90
23237;DHT22;11787;52.018;8.570;2023-07-13T11:55:14;24.50;99.90
23237;DHT22;11787;52.018;8.570;2023-07-13T11:57:42;25.10;99.90
23237;DHT22;11787;52.018;8.570;2023-07-13T12:00:11;25.60;99.90
23237;DHT22;11787;52.018;8.570;2023-07-13T12:02:38;25.50;99.90
23237;DHT22;11787;52.018;8.570;2023-07-13T12:05:04;24.80;99.90
23237;DHT22;11787;52.018;8.570;2023-07-13T12:07:31;24.40;99.90
23237;DHT22;11787;52.018;8.570;2023-07-13T12:10:00;24.20;99.90
23237;DHT22;11787;52.018;8.570;2023-07-13T12:12:28;24.40;99.90
23237;DHT22;11787;52.018;8.570;2023-07-13T12:14:54;24.00;99.90
23237;DHT22;11787;52.018;8.570;2023-07-13T12:17:23;24.50;99.90
23237;DHT22;11787;52.018;8.570;2023-07-13T12:19:50;24.90;99.90
23237;DHT22;11787;52.018;8.570;2023-07-13T12:22:17;25.30;99.90
23237;DHT22;11787;52.018;8.570;2023-07-13T12:24:43;25.60;99.90
23237;DHT22;11787;52.018;8.570;2023-07-13T12:27:20;25.70;99.90
23237;DHT22;11787;52.018;8.570;2023-07-13T12:29:51;25.80;99.90
23237;DHT22;11787;52.018;8.570;2023-07-13T12:32:18;25.30;99.90
23237;DHT22;11787;52.018;8.570;2023-07-13T12:34:51;25.10;99.90
23237;DHT22;11787;52.018;8.570;2023-07-13T12:37:17;24.80;99.90
23237;DHT22;11787;52.018;8.570;2023-07-13T12:39:46;24.20;99.90
23237;DHT22;11787;52.018;8.570;2023-07-13T12:44:40;23.80;99.90
23237;DHT22;11787;52.018;8.570;2023-07-13T12:47:09;23.60;99.90
23237;DHT22;11787;52.018;8.570;2023-07-13T12:49:40;23.50;99.90
23237;DHT22;11787;52.018;8.570;2023-07-13T12:52:16;23.40;99.90
23237;DHT22;11787;52.018;8.570;2023-07-13T12:54:51;23.40;99.90
23237;DHT22;11787;52.018;8.570;2023-07-13T12:57:17;23.50;99.90
23237;DHT22;11787;52.018;8.570;2023-07-13T12:59:42;23.50;99.90
23237;DHT22;11787;52.018;8.570;2023-07-13T13:02:17;23.60;99.90
23237;DHT22;11787;52.018;8.570;2023-07-13T13:04:47;23.40;99.90
23237;DHT22;11787;52.018;8.570;2023-07-13T13:07:13;23.50;99.90
23237;DHT22;11787;52.018;8.570;2023-07-13T13:09:38;23.40;99.90
23237;DHT22;11787;52.018;8.570;2023-07-13T13:12:04;23.60;99.90
23237;DHT22;11787;52.018;8.570;2023-07-13T13:14:30;23.60;99.90
23237;DHT22;11787;52.018;8.570;2023-07-13T13:16:56;23.70;99.90
23237;DHT22;11787;52.018;8.570;2023-07-13T13:19:26;23.90;99.90
23237;DHT22;11787;52.018;8.570;2023-07-13T13:21:53;24.00;99.90
23237;DHT22;11787;52.018;8.570;2023-07-13T13:24:20;24.30;99.90
23237;DHT22;11787;52.018;8.570;2023-07-13T13:26:46;24.30;99.90
23237;DHT22;11787;52.018;8.570;2023-07-13T13:29:15;24.30;99.90
23237;DHT22;11787;52.018;8.570;2023-07-13T13:31:41;24.30;99.90
23237;DHT22;11787;52.018;8.570;2023-07-13T13:34:10;24.30;99.90
23237;DHT22;11787;52.018;8.570;2023-07-13T13:36:36;23.90;99.90
23237;DHT22;11787;52.018;8.570;2023-07-13T13:39:02;23.50;99.90
23237;DHT22;11787;52.018;8.570;2023-07-13T13:41:30;23.30;99.90
23237;DHT22;11787;52.018;8.570;2023-07-13T13:43:56;23.30;99.90
23237;DHT22;11787;52.018;8.570;2023-07-13T13:46:22;23.20;99.90
23237;DHT22;11787;52.018;8.570;2023-07-13T13:48:50;23.00;99.90
23237;DHT22;11787;52.018;8.570;2023-07-13T13:51:17;22.80;99.90
23237;DHT22;11787;52.018;8.570;2023-07-13T13:53:43;22.00;99.90
23237;DHT22;11787;52.018;8.570;2023-07-13T13:56:11;21.50;99.90
23237;DHT22;11787;52.018;8.570;2023-07-13T13:58:36;21.10;99.90
23237;DHT22;11787;52.018;8.570;2023-07-13T14:01:02;21.00;99.90
23237;DHT22;11787;52.018;8.570;2023-07-13T14:03:27;20.60;99.90
23237;DHT22;11787;52.018;8.570;2023-07-13T14:05:53;20.50;99.90
23237;DHT22;11787;52.018;8.570;2023-07-13T14:08:20;20.30;99.90
23237;DHT22;11787;52.018;8.570;2023-07-13T14:10:46;20.10;99.90
23237;DHT22;11787;52.018;8.570;2023-07-13T14:13:16;19.90;99.90
23237;DHT22;11787;52.018;8.570;2023-07-13T14:15:42;19.90;99.90
23237;DHT22;11787;52.018;8.570;2023-07-13T14:18:08;19.90;99.90
23237;DHT22;11787;52.018;8.570;2023-07-13T14:20:34;19.90;99.90
23237;DHT22;11787;52.018;8.570;2023-07-13T14:22:59;19.90;99.90
23237;DHT22;11787;52.018;8.570;2023-07-13T14:25:25;20.00;99.90
23237;DHT22;11787;52.018;8.570;2023-07-13T14:27:53;20.30;99.90
23237;DHT22;11787;52.018;8.570;2023-07-13T14:30:19;20.50;99.90
23237;DHT22;11787;52.018;8.570;2023-07-13T14:32:45;20.40;99.90
23237;DHT22;11787;52.018;8.570;2023-07-13T14:35:12;20.30;99.90
23237;DHT22;11787;52.018;8.570;2023-07-13T14:37:38;20.10;99.90
23237;DHT22;11787;52.018;8.570;2023-07-13T14:40:14;20.00;99.90
23237;DHT22;11787;52.018;8.570;2023-07-13T14:42:39;20.00;99.90
23237;DHT22;11787;52.018;8.570;2023-07-13T14:45:05;19.90;99.90
23237;DHT22;11787;52.018;8.570;2023-07-13T14:47:31;19.80;99.90
23237;DHT22;11787;52.018;8.570;2023-07-13T14:49:56;20.00;99.90
23237;DHT22;11787;52.018;8.570;2023-07-13T14:52:22;20.00;99.90
23237;DHT22;11787;52.018;8.570;2023-07-13T14:54:49;20.10;99.90
23237;DHT22;11787;52.018;8.570;2023-07-13T14:57:18;20.00;99.90
23237;DHT22;11787;52.018;8.570;2023-07-13T14:59:45;20.00;99.90
23237;DHT22;11787;52.018;8.570;2023-07-13T15:04:51;19.40;99.90
23237;DHT22;11787;52.018;8.570;2023-07-13T15:07:16;19.00;99.90
23237;DHT22;11787;52.018;8.570;2023-07-13T15:09:44;18.90;99.90
23237;DHT22;11787;52.018;8.570;2023-07-13T15:12:09;18.60;99.90
23237;DHT22;11787;52.018;8.570;2023-07-13T15:14:35;18.60;99.90
23237;DHT22;11787;52.018;8.570;2023-07-13T15:17:00;18.60;99.90
23237;DHT22;11787;52.018;8.570;2023-07-13T15:19:26;18.70;99.90
23237;DHT22;11787;52.018;8.570;2023-07-13T15:21:52;18.70;99.90
23237;DHT22;11787;52.018;8.570;2023-07-13T15:24:19;18.70;99.90
23237;DHT22;11787;52.018;8.570;2023-07-13T15:26:46;18.70;99.90
23237;DHT22;11787;52.018;8.570;2023-07-13T15:29:14;18.70;99.90
23237;DHT22;11787;52.018;8.570;2023-07-13T15:31:40;18.60;99.90
23237;DHT22;11787;52.018;8.570;2023-07-13T15:34:12;18.60;99.90
23237;DHT22;11787;52.018;8.570;2023-07-13T15:36:38;18.70;99.90
23237;DHT22;11787;52.018;8.570;2023-07-13T15:39:04;18.60;99.90
23237;DHT22;11787;52.018;8.570;2023-07-13T15:41:29;18.70;99.90
23237;DHT22;11787;52.018;8.570;2023-07-13T15:43:57;18.90;99.90
23237;DHT22;11787;52.018;8.570;2023-07-13T15:46:23;18.80;99.90
23237;DHT22;11787;52.018;8.570;2023-07-13T15:48:50;18.90;99.90
23237;DHT22;11787;52.018;8.570;2023-07-13T15:51:21;18.90;99.90
23237;DHT22;11787;52.018;8.570;2023-07-13T15:53:48;18.90;99.90
23237;DHT22;11787;52.018;8.570;2023-07-13T15:56:24;18.90;99.90
23237;DHT22;11787;52.018;8.570;2023-07-13T15:58:50;18.90;99.90
23237;DHT22;11787;52.018;8.570;2023-07-13T16:01:16;19.00;99.90
23237;DHT22;11787;52.018;8.570;2023-07-13T16:03:41;19.10;99.90
23237;DHT22;11787;52.018;8.570;2023-07-13T16:06:18;19.10;99.90